Time;durP1;ratioP1;P1;durP2;ratioP2;P2;SDS_P1;SDS_P2;PMS_P1;PMS_P2;Temp;Humidity;BMP_temperature;BMP_pressure;BME280_temperature;BME280_humidity;BME280_pressure;Samples;Min_cycle;Max_cycle;Signal;HPM_P1;HPM_P2
2023/05/08 00:01:44;;;;;;;8.07;4.15;;;;;;;13.25;66.80;101095.19;5074639;28;20032;-83
2023/05/08 00:04:09;;;;;;;16.05;4.20;;;;;;;13.05;67.06;101061.78;5075271;28;20641;-83
2023/05/08 00:06:34;;;;;;;11.43;5.00;;;;;;;13.14;67.10;101081.75;5074893;28;20104;-83
2023/05/08 00:09:00;;;;;;;11.98;5.13;;;;;;;13.21;67.32;101099.16;5073701;28;20490;-85
2023/05/08 00:11:25;;;;;;;11.95;4.43;;;;;;;12.96;67.25;101047.22;5073164;28;20036;-82
2023/05/08 00:13:51;;;;;;;11.13;4.10;;;;;;;13.09;66.86;101077.59;5073253;28;20455;-82
2023/05/08 00:16:16;;;;;;;17.42;4.68;;;;;;;13.09;67.04;101093.81;5073831;28;20032;-83
2023/05/08 00:18:42;;;;;;;16.25;5.50;;;;;;;13.08;67.58;101083.16;5076454;28;20024;-82
2023/05/08 00:21:07;;;;;;;15.63;4.57;;;;;;;13.12;67.31;101099.94;5074968;28;20050;-84
2023/05/08 00:23:33;;;;;;;16.25;4.40;;;;;;;13.12;67.75;101099.94;5090585;28;20020;-84
2023/05/08 00:25:59;;;;;;;25.45;6.13;;;;;;;13.03;67.78;101085.31;5088191;28;20084;-83
2023/05/08 00:28:24;;;;;;;14.77;5.82;;;;;;;13.08;67.99;101107.44;5071682;28;20032;-84
2023/05/08 00:30:51;;;;;;;21.63;5.43;;;;;;;12.97;68.09;101092.09;5070473;28;20040;-84
2023/05/08 00:33:16;;;;;;;17.48;6.25;;;;;;;13.01;68.03;101081.91;5071451;28;20085;-83
2023/05/08 00:35:42;;;;;;;9.02;4.60;;;;;;;12.98;68.03;101077.63;5071296;28;20032;-83
2023/05/08 00:38:08;;;;;;;15.93;6.97;;;;;;;13.01;68.01;101087.31;5069847;28;20045;-83
2023/05/08 00:40:34;;;;;;;10.82;5.30;;;;;;;13.03;67.98;101097.00;5073132;28;20598;-83
2023/05/08 00:43:00;;;;;;;13.40;4.95;;;;;;;13.00;68.55;101091.84;5073213;28;20037;-83
2023/05/08 00:45:35;;;;;;;11.20;5.57;;;;;;;12.96;68.31;101094.94;5072357;28;20024;-84
2023/05/08 00:48:01;;;;;;;16.88;6.68;;;;;;;12.64;68.42;101050.88;5069181;28;20064;-86
2023/05/08 00:50:26;;;;;;;25.50;6.57;;;;;;;12.86;68.31;101089.47;5070247;28;20491;-85
2023/05/08 00:52:53;;;;;;;11.80;4.75;;;;;;;12.93;68.79;101096.06;5071235;28;20039;-84
2023/05/08 00:55:19;;;;;;;23.83;5.50;;;;;;;12.88;68.43;101082.06;5070016;28;20074;-84
2023/05/08 00:57:46;;;;;;;20.02;5.28;;;;;;;12.95;68.45;101096.78;5070655;28;20036;-83
2023/05/08 01:00:14;;;;;;;12.55;5.03;;;;;;;12.93;68.58;101090.66;5069661;28;20036;-85
2023/05/08 01:02:39;;;;;;;29.70;7.70;;;;;;;12.90;68.78;101085.50;5070283;28;20119;-83
2023/05/08 01:05:08;;;;;;;16.30;6.30;;;;;;;12.90;68.33;101096.28;5070265;28;20178;-86
2023/05/08 01:07:34;;;;;;;15.73;6.32;;;;;;;12.80;68.64;101072.91;5067162;28;20033;-85
2023/05/08 01:09:59;;;;;;;19.42;6.55;;;;;;;12.87;68.78;101096.53;5069650;28;20017;-83
2023/05/08 01:13:02;;;;;;;12.80;6.30;;;;;;;12.90;68.59;101099.00;5061903;28;20031;-83
2023/05/08 01:15:42;;;;;;;15.13;7.35;;;;;;;12.88;68.73;101095.56;5067998;28;20020;-85
2023/05/08 01:18:21;;;;;;;18.23;7.88;;;;;;;12.91;69.07;101086.34;5074885;28;20063;-85
2023/05/08 01:21:11;;;;;;;20.67;8.18;;;;;;;12.85;68.56;101082.34;5089848;28;20021;-86
2023/05/08 01:24:30;;;;;;;27.60;7.55;;;;;;;12.82;68.95;101082.59;5081526;28;20090;-87
2023/05/08 01:27:21;;;;;;;27.00;9.35;;;;;;;12.82;69.17;101077.19;5071857;28;20495;-84
2023/05/08 01:30:21;;;;;;;19.27;7.75;;;;;;;12.81;68.71;101080.88;5068260;28;20044;-83
2023/05/08 01:32:56;;;;;;;14.20;7.55;;;;;;;12.60;69.40;101061.06;5068159;28;20491;-83
2023/05/08 01:35:57;;;;;;;27.55;7.45;;;;;;;12.64;69.38;101062.53;5068137;28;20029;-82
2023/05/08 01:38:32;;;;;;;19.10;6.10;;;;;;;12.58;69.24;101057.66;5043930;28;20535;-84
2023/05/08 01:41:09;;;;;;;16.40;7.95;;;;;;;12.71;69.62;101070.97;5050379;28;20033;-84
2023/05/08 01:43:49;;;;;;;25.75;7.88;;;;;;;12.74;69.26;101068.88;5046101;28;20056;-83
2023/05/08 01:46:27;;;;;;;20.13;7.85;;;;;;;12.70;69.12;101059.31;5054497;28;20029;-85
2023/05/08 01:48:58;;;;;;;15.68;7.22;;;;;;;12.74;69.17;101063.50;5047262;28;20492;-84
2023/05/08 01:51:27;;;;;;;23.02;7.60;;;;;;;12.71;69.19;101063.75;5040246;28;20057;-84
2023/05/08 01:54:03;;;;;;;20.75;7.75;;;;;;;12.68;68.84;101047.81;5043436;28;20715;-84
2023/05/08 01:56:29;;;;;;;30.70;7.38;;;;;;;12.74;68.72;101068.88;5019518;28;20052;-84
2023/05/08 01:58:57;;;;;;;13.55;4.85;;;;;;;12.79;68.25;101073.88;5026873;28;20053;-84
2023/05/08 02:01:24;;;;;;;26.88;6.47;;;;;;;12.77;68.27;101071.34;5026805;28;20034;-82
2023/05/08 02:03:50;;;;;;;12.75;6.10;;;;;;;12.79;68.21;101060.38;5028458;28;20516;-83
2023/05/08 02:06:19;;;;;;;18.83;6.95;;;;;;;12.83;68.27;101065.41;5054964;28;20024;-86
2023/05/08 02:08:46;;;;;;;15.88;5.95;;;;;;;12.82;68.16;101069.09;5068416;28;20617;-83
2023/05/08 02:11:13;;;;;;;30.40;7.60;;;;;;;12.85;67.83;101070.66;5069043;28;20063;-83
2023/05/08 02:13:40;;;;;;;27.33;6.05;;;;;;;12.82;67.99;101071.78;5051789;28;20169;-84
2023/05/08 02:16:11;;;;;;;17.70;6.18;;;;;;;12.80;67.78;101070.22;5084175;28;20073;-85
2023/05/08 02:18:40;;;;;;;20.95;5.43;;;;;;;12.74;67.74;101071.59;5088854;28;20176;-83
2023/05/08 02:21:09;;;;;;;18.20;5.35;;;;;;;12.67;67.98;101062.28;5073184;28;20484;-84
2023/05/08 02:23:34;;;;;;;17.23;5.63;;;;;;;12.47;67.93;101033.41;5069282;28;20032;-85
2023/05/08 02:26:02;;;;;;;15.18;6.28;;;;;;;12.67;68.29;101064.13;5068581;28;20025;-86
2023/05/08 02:28:29;;;;;;;17.30;5.63;;;;;;;12.56;68.15;101046.13;5069406;28;20402;-82
2023/05/08 02:30:57;;;;;;;24.45;6.57;;;;;;;12.58;68.01;101052.25;5068860;28;20059;-85
2023/05/08 02:33:23;;;;;;;21.90;6.15;;;;;;;12.54;68.53;101062.44;5068833;28;20480;-84
2023/05/08 02:35:50;;;;;;;51.03;9.18;;;;;;;12.59;68.38;101059.38;5069614;28;20031;-83
2023/05/08 02:38:19;;;;;;;30.90;5.78;;;;;;;12.52;68.27;101052.75;5065454;28;20481;-85
2023/05/08 02:40:48;;;;;;;20.52;5.47;;;;;;;12.59;68.08;101062.06;5061182;28;20134;-85
2023/05/08 02:43:14;;;;;;;17.73;5.82;;;;;;;12.50;67.77;101043.94;5063668;28;20766;-84
2023/05/08 02:45:57;;;;;;;15.63;4.55;;;;;;;12.56;67.97;101059.63;5062506;28;20099;-83
2023/05/08 02:48:30;;;;;;;16.45;4.60;;;;;;;12.35;68.32;101034.41;5057272;28;20078;-84
2023/05/08 02:51:09;;;;;;;17.58;5.13;;;;;;;12.43;68.22;101045.44;5063880;28;20028;-84
2023/05/08 02:53:43;;;;;;;10.57;4.57;;;;;;;12.46;67.89;101048.72;5065552;28;20389;-85
2023/05/08 02:56:22;;;;;;;15.85;5.13;;;;;;;12.55;67.87;101060.59;5053699;28;20488;-83
2023/05/08 02:59:08;;;;;;;8.38;4.22;;;;;;;12.53;67.88;101059.88;5059457;28;20066;-84
2023/05/08 03:01:44;;;;;;;20.35;4.35;;;;;;;12.53;68.02;101059.88;5063589;28;20727;-83
2023/05/08 03:04:14;;;;;;;18.73;5.43;;;;;;;12.50;67.92;101052.03;5070196;28;20816;-84
2023/05/08 03:06:44;;;;;;;14.07;5.25;;;;;;;12.60;67.38;101065.63;5073617;28;20056;-82
2023/05/08 03:09:18;;;;;;;15.57;4.57;;;;;;;12.54;67.48;101061.56;5071625;28;20029;-85
2023/05/08 03:11:48;;;;;;;21.35;5.03;;;;;;;12.48;68.10;101080.97;5072503;28;20024;-82
2023/05/08 03:14:19;;;;;;;10.55;4.80;;;;;;;12.47;68.14;101071.19;5078642;28;20031;-81
2023/05/08 03:16:46;;;;;;;15.15;4.18;;;;;;;12.39;68.11;101070.94;5076918;28;20103;-84
2023/05/08 03:19:21;;;;;;;12.23;4.00;;;;;;;12.41;68.92;101067.16;5072806;28;20496;-84
2023/05/08 03:21:50;;;;;;;13.50;5.20;;;;;;;12.54;67.91;101083.16;5073910;28;20111;-83
2023/05/08 03:24:18;;;;;;;33.88;7.93;;;;;;;12.63;67.45;101074.28;5073647;28;20024;-84
2023/05/08 03:26:44;;;;;;;20.92;6.75;;;;;;;12.60;66.69;101061.06;5071998;28;20028;-83
2023/05/08 03:29:12;;;;;;;29.00;9.55;;;;;;;12.74;67.03;101084.22;5071734;28;20032;-84
2023/05/08 03:31:39;;;;;;;36.58;9.63;;;;;;;12.78;66.28;101078.41;5072290;28;20434;-82
2023/05/08 03:34:07;;;;;;;31.02;7.80;;;;;;;12.81;66.33;101080.88;5071839;28;20025;-83
2023/05/08 03:36:33;;;;;;;21.15;7.32;;;;;;;12.88;66.28;101073.97;5071630;28;20407;-84
2023/05/08 03:38:59;;;;;;;20.80;7.53;;;;;;;12.94;66.24;101076.16;5072259;28;20108;-84
2023/05/08 03:41:25;;;;;;;21.05;8.63;;;;;;;13.07;65.85;101078.69;5071764;28;20033;-84
2023/05/08 03:43:52;;;;;;;19.00;7.00;;;;;;;13.15;65.93;101080.78;5070214;28;20043;-86
2023/05/08 03:46:19;;;;;;;25.77;7.20;;;;;;;13.20;65.46;101083.94;5071622;28;20028;-85
2023/05/08 03:48:46;;;;;;;36.67;8.02;;;;;;;13.17;65.15;101070.69;5071504;28;20031;-87
2023/05/08 03:51:12;;;;;;;22.20;8.55;;;;;;;13.20;65.65;101075.84;5072082;28;20039;-86
2023/05/08 03:53:37;;;;;;;29.30;8.35;;;;;;;13.31;66.08;101090.13;5071692;28;20408;-84
2023/05/08 03:56:03;;;;;;;22.80;8.00;;;;;;;13.33;65.92;101074.66;5072143;28;20033;-84
2023/05/08 03:58:49;;;;;;;28.00;7.32;;;;;;;13.47;66.07;101086.97;5072443;28;20032;-84
2023/05/08 04:01:20;;;;;;;20.90;7.68;;;;;;;13.60;65.92;101093.06;5072683;28;20129;-83
2023/05/08 04:04:05;;;;;;;17.30;6.78;;;;;;;13.54;65.81;101080.06;5073785;28;20043;-83
2023/05/08 04:06:39;;;;;;;20.10;7.03;;;;;;;13.71;65.24;101087.56;5074165;28;20040;-83
2023/05/08 04:09:29;;;;;;;35.50;7.38;;;;;;;13.86;65.31;101094.31;5079063;28;20107;-85
2023/05/08 04:12:03;;;;;;;20.58;8.77;;;;;;;13.95;65.05;101101.63;5083511;28;20043;-84
2023/05/08 04:14:41;;;;;;;23.27;5.57;;;;;;;14.07;64.61;101105.09;5077247;28;20024;-84
2023/05/08 04:17:10;;;;;;;25.38;5.25;;;;;;;14.18;63.91;101102.31;5072010;28;20036;-83
2023/05/08 04:19:41;;;;;;;18.55;6.47;;;;;;;14.21;63.78;101101.19;5072179;28;20048;-85
2023/05/08 04:22:09;;;;;;;32.30;7.57;;;;;;;14.25;63.76;101087.22;5081646;28;20046;-84
2023/05/08 04:24:41;;;;;;;24.42;7.18;;;;;;;14.34;63.76;101077.50;5076437;28;20384;-84
2023/05/08 04:27:08;;;;;;;30.70;6.38;;;;;;;14.48;63.25;101085.19;5074087;28;20027;-82
2023/05/08 04:29:34;;;;;;;16.75;5.57;;;;;;;14.59;63.23;101091.34;5073059;28;20070;-83
2023/05/08 04:32:00;;;;;;;16.85;5.38;;;;;;;14.75;63.05;101079.97;5073581;28;20025;-83
2023/05/08 04:34:27;;;;;;;42.92;7.43;;;;;;;14.87;62.75;101078.00;5071987;28;20090;-83
2023/05/08 04:36:53;;;;;;;21.13;7.18;;;;;;;15.03;62.36;101089.13;5054681;28;20569;-83
2023/05/08 04:39:19;;;;;;;30.63;6.20;;;;;;;15.21;61.28;101092.84;5053996;28;20129;-83
2023/05/08 04:41:44;;;;;;;27.33;6.65;;;;;;;15.22;60.65;101081.88;5071848;28;20219;-85
2023/05/08 04:44:10;;;;;;;30.02;5.72;;;;;;;15.29;59.91;101079.41;5071376;28;20024;-85
2023/05/08 04:46:35;;;;;;;17.55;4.97;;;;;;;15.18;59.82;101049.78;5072702;28;20029;-85
2023/05/08 04:49:01;;;;;;;19.88;5.85;;;;;;;15.40;60.23;101086.56;5071697;28;20056;-84
2023/05/08 04:51:26;;;;;;;22.02;6.18;;;;;;;15.45;60.34;101074.25;5071410;28;20035;-85
2023/05/08 04:53:52;;;;;;;14.73;5.25;;;;;;;15.52;59.86;101074.56;5068599;28;20032;-84
2023/05/08 04:56:18;;;;;;;20.98;6.13;;;;;;;15.58;59.24;101072.13;5071096;28;20054;-82
2023/05/08 04:58:43;;;;;;;12.85;6.63;;;;;;;15.56;60.88;101070.59;5073885;28;20032;-84
2023/05/08 05:01:09;;;;;;;26.38;7.32;;;;;;;15.50;61.34;101044.06;5075733;28;20028;-83
2023/05/08 05:03:34;;;;;;;42.35;10.00;;;;;;;15.90;61.96;101085.31;5072818;28;20369;-81
2023/05/08 05:06:00;;;;;;;28.77;6.13;;;;;;;15.85;61.17;101087.63;5079992;28;20033;-84
2023/05/08 05:08:26;;;;;;;26.65;9.48;;;;;;;15.95;59.83;101095.72;5083628;28;20032;-83
2023/05/08 05:10:52;;;;;;;20.80;5.68;;;;;;;15.88;62.34;101092.75;5080005;28;20032;-84
2023/05/08 05:13:18;;;;;;;28.40;6.55;;;;;;;15.67;63.01;101073.13;5070609;28;20025;-83
2023/05/08 05:15:44;;;;;;;18.83;5.90;;;;;;;15.79;64.38;101094.50;5071968;28;20086;-85
2023/05/08 05:18:10;;;;;;;10.48;4.90;;;;;;;15.83;62.85;101095.06;5070556;28;20075;-82
2023/05/08 05:20:36;;;;;;;30.67;6.32;;;;;;;15.88;61.60;101109.03;5070617;28;20100;-80
2023/05/08 05:23:01;;;;;;;21.30;5.70;;;;;;;15.98;62.03;101099.00;5070448;28;20058;-79
2023/05/08 05:25:27;;;;;;;26.27;5.45;;;;;;;16.09;62.42;101084.38;5069939;28;20055;-80
2023/05/08 05:27:53;;;;;;;15.57;5.07;;;;;;;16.14;61.26;101088.38;5070316;28;20479;-79
2023/05/08 05:30:18;;;;;;;34.20;7.10;;;;;;;16.14;63.09;101077.53;5070920;28;20024;-84
2023/05/08 05:32:44;;;;;;;19.85;5.60;;;;;;;16.23;63.36;101073.91;5072140;28;20769;-79
2023/05/08 05:35:10;;;;;;;20.58;4.47;;;;;;;16.52;62.06;101086.47;5068181;28;20048;-83
2023/05/08 05:37:36;;;;;;;13.27;4.57;;;;;;;16.75;60.46;101093.22;5069934;28;20051;-82
2023/05/08 05:40:02;;;;;;;17.10;5.05;;;;;;;16.76;58.69;101084.91;5070667;28;20025;-85
2023/05/08 05:42:27;;;;;;;11.15;4.05;;;;;;;16.57;58.74;101067.91;5070058;28;20098;-83
2023/05/08 05:44:53;;;;;;;18.67;4.25;;;;;;;16.49;58.38;101081.34;5070252;28;20493;-82
2023/05/08 05:47:19;;;;;;;44.90;6.07;;;;;;;16.41;58.67;101086.69;5070795;28;20058;-85
2023/05/08 05:49:48;;;;;;;14.98;4.22;;;;;;;16.32;58.93;101097.44;5070742;28;20378;-85
2023/05/08 05:52:13;;;;;;;15.85;4.55;;;;;;;16.23;59.46;101084.78;5071575;28;20053;-85
2023/05/08 05:54:40;;;;;;;7.72;4.00;;;;;;;16.41;60.07;101092.09;5073868;28;20368;-86
2023/05/08 05:57:06;;;;;;;39.78;5.97;;;;;;;16.37;60.98;101091.53;5074041;28;20488;-83
2023/05/08 05:59:32;;;;;;;16.75;5.15;;;;;;;16.39;59.97;101091.41;5073087;28;20024;-81
2023/05/08 06:01:57;;;;;;;16.85;5.68;;;;;;;16.41;59.75;101086.69;5072004;28;20371;-80
2023/05/08 06:04:23;;;;;;;17.58;3.90;;;;;;;16.47;60.47;101102.38;5082352;28;20016;-82
2023/05/08 06:06:49;;;;;;;17.55;4.35;;;;;;;16.38;59.78;101100.56;5074374;28;20089;-81
2023/05/08 06:09:14;;;;;;;25.75;5.28;;;;;;;16.39;58.85;101096.84;5070030;28;20032;-81
2023/05/08 06:11:40;;;;;;;12.18;5.15;;;;;;;16.20;59.67;101071.50;5072811;28;20025;-83
2023/05/08 06:14:06;;;;;;;26.40;5.50;;;;;;;16.42;60.32;101096.53;5069683;28;20100;-87
2023/05/08 06:16:32;;;;;;;25.85;5.60;;;;;;;16.37;59.70;101090.69;5066906;28;20476;-79
2023/05/08 06:18:57;;;;;;;29.30;6.28;;;;;;;16.62;60.12;101104.47;5068164;28;20032;-80
2023/05/08 06:21:23;;;;;;;23.45;5.90;;;;;;;16.59;59.95;101120.19;5069339;28;20028;-80
2023/05/08 06:23:48;;;;;;;20.52;6.97;;;;;;;16.51;58.80;101103.78;5068413;28;20108;-81
2023/05/08 06:26:13;;;;;;;17.00;5.30;;;;;;;16.50;59.21;101104.78;5068003;28;20423;-85
2023/05/08 06:28:39;;;;;;;13.00;4.72;;;;;;;16.52;59.13;101106.31;5067950;28;20025;-80
2023/05/08 06:31:04;;;;;;;18.13;4.75;;;;;;;16.40;59.38;101099.41;5068745;28;20028;-82
2023/05/08 06:33:30;;;;;;;32.33;6.95;;;;;;;16.37;62.41;101093.41;5068975;28;20039;-82
2023/05/08 06:35:56;;;;;;;11.52;5.32;;;;;;;16.40;63.57;101099.41;5069127;28;20451;-80
2023/05/08 06:38:21;;;;;;;12.93;5.20;;;;;;;16.44;63.15;101121.66;5068394;28;20462;-82
2023/05/08 06:40:48;;;;;;;23.88;7.93;;;;;;;16.40;63.97;101110.25;5070538;28;20127;-81
2023/05/08 06:43:19;;;;;;;17.00;6.18;;;;;;;16.42;62.38;101119.09;5070926;28;20029;-81
2023/05/08 06:45:45;;;;;;;35.63;5.90;;;;;;;16.27;60.30;101120.59;5070602;28;20036;-81
2023/05/08 06:48:10;;;;;;;50.67;11.05;;;;;;;16.18;61.87;101108.78;5070240;28;20020;-77
2023/05/08 06:50:39;;;;;;;14.45;5.20;;;;;;;16.36;61.94;101122.41;5069127;28;20029;-82
2023/05/08 06:53:06;;;;;;;19.50;7.28;;;;;;;16.58;61.62;101135.63;5070717;28;20419;-80
2023/05/08 06:55:32;;;;;;;23.77;5.60;;;;;;;16.53;59.12;101131.63;5071625;28;20476;-80
2023/05/08 06:57:57;;;;;;;30.02;8.70;;;;;;;16.61;59.34;101121.75;5071449;28;20475;-84
2023/05/08 07:00:23;;;;;;;16.58;5.03;;;;;;;16.79;59.34;101138.06;5078442;28;20111;-84
2023/05/08 07:02:48;;;;;;;11.10;5.13;;;;;;;16.85;58.70;101143.75;5078302;28;20108;-83
2023/05/08 07:05:14;;;;;;;35.75;5.93;;;;;;;16.65;59.32;101130.44;5069277;28;20396;-80
2023/05/08 07:07:41;;;;;;;19.85;6.05;;;;;;;16.57;58.99;101120.34;5070215;28;20027;-85
2023/05/08 07:10:07;;;;;;;15.27;5.70;;;;;;;16.62;59.87;101125.31;5070045;28;20098;-82
2023/05/08 07:12:32;;;;;;;10.52;5.20;;;;;;;16.58;60.35;101118.47;5068377;28;20028;-83
2023/05/08 07:14:58;;;;;;;15.38;5.15;;;;;;;16.72;60.61;101109.84;5068400;28;20029;-84
2023/05/08 07:17:23;;;;;;;249.80;37.08;;;;;;;16.94;60.77;101128.41;5069147;28;20688;-84
2023/05/08 07:19:50;;;;;;;26.88;6.03;;;;;;;17.13;60.20;101114.66;5067652;28;20035;-82
2023/05/08 07:22:15;;;;;;;22.75;6.75;;;;;;;17.14;58.71;101105.50;5067793;28;20340;-83
2023/05/08 07:24:41;;;;;;;23.73;6.75;;;;;;;16.99;59.78;101101.63;5067888;28;20025;-84
2023/05/08 07:27:07;;;;;;;18.08;5.68;;;;;;;16.83;59.49;101096.88;5068955;28;20028;-82
2023/05/08 07:29:34;;;;;;;14.88;5.85;;;;;;;16.76;60.19;101079.47;5069859;28;20032;-81
2023/05/08 07:32:00;;;;;;;23.90;6.65;;;;;;;16.67;59.91;101074.09;5069059;28;20100;-79
2023/05/08 07:34:27;;;;;;;15.77;5.00;;;;;;;16.73;60.12;101092.50;5068935;28;20124;-78
2023/05/08 07:36:52;;;;;;;15.23;5.50;;;;;;;16.80;60.06;101086.31;5068201;28;20053;-82
2023/05/08 07:39:18;;;;;;;23.13;7.50;;;;;;;16.85;60.66;101088.56;5068644;28;20197;-84
2023/05/08 07:41:44;;;;;;;50.10;7.50;;;;;;;17.12;60.50;101107.56;5070073;28;20099;-79
2023/05/08 07:44:10;;;;;;;10.73;6.03;;;;;;;16.82;60.55;101089.72;5071067;28;20032;-86
2023/05/08 07:46:36;;;;;;;15.13;5.32;;;;;;;16.89;60.30;101122.56;5072124;28;20051;-84
2023/05/08 07:49:02;;;;;;;22.88;6.50;;;;;;;17.06;60.51;101124.47;5071803;28;20430;-83
2023/05/08 07:51:27;;;;;;;31.40;6.93;;;;;;;17.09;60.42;101120.59;5075836;28;20090;-83
2023/05/08 07:53:53;;;;;;;23.73;5.43;;;;;;;17.22;60.10;101112.88;5070610;28;20032;-84
2023/05/08 07:56:21;;;;;;;17.23;5.05;;;;;;;17.54;59.32;101117.75;5084855;28;20024;-80
2023/05/08 07:58:46;;;;;;;20.45;5.78;;;;;;;17.68;57.52;101122.66;5081351;28;20025;-81
2023/05/08 08:01:12;;;;;;;23.45;5.00;;;;;;;17.77;57.47;101132.56;5071983;28;20043;-87
2023/05/08 08:03:38;;;;;;;20.85;4.70;;;;;;;18.03;57.48;101119.00;5069193;28;20089;-84
2023/05/08 08:06:04;;;;;;;68.10;10.30;;;;;;;18.24;57.40;101116.72;5074412;28;20111;-88
2023/05/08 08:08:29;;;;;;;14.13;4.63;;;;;;;18.41;56.87;101103.03;5071824;28;20736;-86
2023/05/08 08:10:55;;;;;;;16.27;4.32;;;;;;;18.39;55.85;101105.06;5071875;28;20047;-80
2023/05/08 08:13:20;;;;;;;14.63;4.43;;;;;;;18.43;55.08;101111.91;5070825;28;20024;-85
2023/05/08 08:15:45;;;;;;;12.43;3.33;;;;;;;18.31;54.11;101104.19;5071496;28;20032;-80
2023/05/08 08:18:11;;;;;;;8.57;3.97;;;;;;;18.28;54.85;101113.53;5071600;28;20028;-83
2023/05/08 08:20:37;;;;;;;14.70;4.75;;;;;;;18.17;54.93;101116.53;5071304;28;20025;-86
2023/05/08 08:23:02;;;;;;;17.55;4.90;;;;;;;18.07;55.76;101115.78;5072253;28;20862;-84
2023/05/08 08:25:28;;;;;;;31.45;5.65;;;;;;;17.98;56.96;101105.84;5071147;28;20035;-83
2023/05/08 08:27:53;;;;;;;14.05;4.93;;;;;;;18.00;57.20;101117.44;5071734;28;20021;-84
2023/05/08 08:30:19;;;;;;;35.22;8.57;;;;;;;17.94;57.91;101112.66;5071322;28;20098;-84
2023/05/08 08:32:45;;;;;;;65.15;9.68;;;;;;;17.95;58.31;101111.63;5070466;28;20040;-84
2023/05/08 08:35:10;;;;;;;24.67;5.07;;;;;;;17.99;58.17;101113.00;5069831;28;20033;-84
2023/05/08 08:37:36;;;;;;;19.98;4.22;;;;;;;17.82;58.93;101094.88;5072679;28;20094;-83
2023/05/08 08:40:02;;;;;;;19.10;4.70;;;;;;;17.82;58.42;101067.69;5072915;28;20105;-83
2023/05/08 08:42:27;;;;;;;22.58;5.55;;;;;;;18.04;58.16;101072.53;5072979;28;20033;-85
2023/05/08 08:44:54;;;;;;;16.98;4.90;;;;;;;18.06;57.46;101091.44;5073642;28;20032;-82
2023/05/08 08:47:27;;;;;;;22.23;4.97;;;;;;;18.16;57.37;101097.63;5075849;28;20467;-83
2023/05/08 08:49:54;;;;;;;17.90;6.85;;;;;;;17.97;56.78;101076.09;5077451;28;20031;-82
2023/05/08 08:52:35;;;;;;;23.38;5.18;;;;;;;18.26;57.05;101076.56;5082893;28;20512;-83
2023/05/08 08:55:03;;;;;;;28.48;5.93;;;;;;;18.30;56.90;101067.06;5087189;28;20021;-83
2023/05/08 08:57:32;;;;;;;12.02;5.30;;;;;;;18.34;56.29;101073.91;5078647;28;20068;-84
2023/05/08 09:00:02;;;;;;;20.17;5.10;;;;;;;18.45;57.10;101098.97;5073388;28;20051;-84
2023/05/08 09:02:29;;;;;;;16.95;4.50;;;;;;;18.48;56.92;101071.38;5071949;28;20028;-82
2023/05/08 09:04:54;;;;;;;12.90;5.38;;;;;;;18.54;57.53;101066.31;5072479;28;20029;-85
2023/05/08 09:07:22;;;;;;;18.80;6.15;;;;;;;18.37;58.16;101073.56;5072314;28;20089;-83
2023/05/08 09:09:49;;;;;;;27.45;5.57;;;;;;;18.48;57.32;101068.66;5071842;28;20032;-82
2023/05/08 09:12:15;;;;;;;18.60;5.15;;;;;;;18.29;58.18;101066.19;5071265;28;20025;-83
2023/05/08 09:14:41;;;;;;;17.38;5.53;;;;;;;18.25;58.18;101059.41;5071215;28;20446;-83
2023/05/08 09:17:06;;;;;;;17.40;5.32;;;;;;;18.25;58.52;101070.28;5070952;28;20107;-84
2023/05/08 09:19:32;;;;;;;17.42;5.30;;;;;;;18.25;58.94;101058.53;5071374;28;20025;-83
2023/05/08 09:21:59;;;;;;;20.55;4.93;;;;;;;18.22;59.06;101065.16;5070186;28;20036;-84
2023/05/08 09:24:26;;;;;;;12.65;4.72;;;;;;;18.20;60.07;101064.47;5070747;28;20051;-83
2023/05/08 09:26:52;;;;;;;23.23;5.68;;;;;;;18.25;60.69;101053.94;5072175;28;20040;-84
2023/05/08 09:29:21;;;;;;;12.48;4.53;;;;;;;18.41;60.00;101081.22;5071935;28;20093;-83
2023/05/08 09:31:51;;;;;;;16.95;5.00;;;;;;;18.13;57.49;101082.47;5070119;28;20040;-84
2023/05/08 09:34:29;;;;;;;8.63;3.67;;;;;;;18.18;58.36;101101.91;5071672;28;20028;-83
2023/05/08 09:37:10;;;;;;;15.88;4.43;;;;;;;18.20;59.67;101099.00;5071276;28;20017;-83
2023/05/08 09:39:56;;;;;;;8.32;4.18;;;;;;;17.96;59.31;101067.06;5072350;28;20074;-82
2023/05/08 09:42:24;;;;;;;22.77;4.88;;;;;;;17.88;58.74;101077.91;5072407;28;20477;-83
2023/05/08 09:44:51;;;;;;;18.77;4.95;;;;;;;17.81;58.71;101060.50;5072969;28;20033;-83
2023/05/08 09:47:22;;;;;;;16.42;5.68;;;;;;;18.23;59.07;101088.63;5072962;28;20039;-83
2023/05/08 09:50:09;;;;;;;23.33;4.53;;;;;;;18.10;59.54;101050.16;5083537;28;20024;-83
2023/05/08 09:52:36;;;;;;;12.95;4.97;;;;;;;18.24;58.62;101084.91;5082776;28;20084;-82
2023/05/08 09:55:09;;;;;;;13.63;3.80;;;;;;;17.87;57.55;101087.09;5074223;28;20027;-84
2023/05/08 09:58:00;;;;;;;22.38;4.63;;;;;;;17.83;57.15;101088.41;5072512;28;20028;-82
2023/05/08 10:00:27;;;;;;;22.60;5.00;;;;;;;17.91;57.02;101094.78;5070074;28;20411;-88
2023/05/08 10:02:55;;;;;;;16.77;4.28;;;;;;;17.71;56.61;101067.91;5072409;28;20024;-84
2023/05/08 10:05:25;;;;;;;8.95;3.65;;;;;;;17.96;56.46;101091.56;5072569;28;20131;-83
2023/05/08 10:07:50;;;;;;;16.90;4.35;;;;;;;17.63;56.69;101070.59;5072432;28;20024;-83
2023/05/08 10:10:42;;;;;;;17.02;3.92;;;;;;;17.56;55.93;101066.78;5072006;28;20406;-84
2023/05/08 10:13:07;;;;;;;9.05;3.95;;;;;;;17.73;55.41;101068.63;5049693;28;20040;-83
2023/05/08 10:15:37;;;;;;;8.70;3.22;;;;;;;18.01;53.66;101078.31;5050850;28;20029;-82
2023/05/08 10:18:04;;;;;;;7.32;3.03;;;;;;;17.99;54.38;101058.56;5053769;28;20044;-84
2023/05/08 10:20:31;;;;;;;10.55;4.30;;;;;;;18.02;54.20;101090.91;5049403;28;20578;-83
2023/05/08 10:22:57;;;;;;;13.30;4.10;;;;;;;17.94;56.39;101099.03;5048851;28;20060;-83
2023/05/08 10:25:24;;;;;;;10.70;4.65;;;;;;;17.91;56.33;101088.47;5048917;28;20025;-84
2023/05/08 10:27:50;;;;;;;20.38;6.47;;;;;;;18.10;56.19;101096.41;5048425;28;20053;-84
2023/05/08 10:30:18;;;;;;;24.25;4.20;;;;;;;18.07;55.02;101071.38;5031993;28;20392;-86
2023/05/08 10:32:48;;;;;;;11.90;3.92;;;;;;;18.36;54.20;101078.16;5048895;28;20061;-82
2023/05/08 10:35:14;;;;;;;10.02;3.45;;;;;;;18.51;51.79;101091.16;5032734;28;20028;-84
2023/05/08 10:37:41;;;;;;;11.05;3.13;;;;;;;18.66;51.47;101059.53;5049658;28;20045;-82
2023/05/08 10:40:08;;;;;;;13.27;4.50;;;;;;;18.78;50.28;101075.41;5050024;28;20036;-85
2023/05/08 10:42:35;;;;;;;10.95;2.90;;;;;;;18.60;51.85;101052.03;5032417;28;20030;-83
2023/05/08 10:45:02;;;;;;;12.63;3.33;;;;;;;18.67;51.63;101080.34;5072156;28;20105;-85
2023/05/08 10:47:37;;;;;;;5.43;3.45;;;;;;;18.80;51.14;101062.50;5080318;28;20032;-83
2023/05/08 10:50:40;;;;;;;14.30;4.25;;;;;;;18.85;52.28;101062.84;5080326;28;20035;-84
2023/05/08 10:53:06;;;;;;;20.65;3.90;;;;;;;18.38;55.03;101039.84;5070872;28;20020;-83
2023/05/08 10:55:36;;;;;;;15.75;4.30;;;;;;;18.54;53.82;101048.09;5069171;28;20109;-83
2023/05/08 10:58:03;;;;;;;14.07;3.80;;;;;;;18.73;54.09;101041.53;5072249;28;20048;-83
2023/05/08 11:00:52;;;;;;;17.42;5.05;;;;;;;18.77;55.72;101075.59;5073979;28;20063;-86
2023/05/08 11:03:19;;;;;;;14.52;3.92;;;;;;;18.62;56.19;101056.31;5050396;28;20045;-84
2023/05/08 11:05:46;;;;;;;23.17;5.65;;;;;;;18.73;55.49;101074.22;5047953;28;20176;-82
2023/05/08 11:08:23;;;;;;;11.65;4.28;;;;;;;18.90;53.86;101071.34;5048354;28;20044;-83
2023/05/08 11:11:05;;;;;;;12.85;4.60;;;;;;;18.75;52.74;101078.47;5048126;28;20029;-85
2023/05/08 11:13:36;;;;;;;20.40;4.93;;;;;;;18.75;54.29;101080.34;5031077;28;20044;-89
2023/05/08 11:16:05;;;;;;;19.58;4.10;;;;;;;18.82;53.08;101075.94;5047530;28;20040;-83
2023/05/08 11:18:31;;;;;;;19.33;4.05;;;;;;;18.71;53.26;101051.75;5031017;28;20029;-83
2023/05/08 11:20:59;;;;;;;11.43;3.65;;;;;;;18.63;53.75;101051.69;5048683;28;20107;-84
2023/05/08 11:23:27;;;;;;;15.63;4.32;;;;;;;18.78;53.38;101069.97;5049077;28;20033;-82
2023/05/08 11:26:02;;;;;;;9.77;3.67;;;;;;;18.88;51.96;101083.44;5048964;28;20037;-82